Terminal Aerodrome Forecast
Issued by NWS

Current Version | Previous Version | Text Only | Print | Product List | Glossary On
Versions: 1 2 3 4 5 6 7 8 9 10 11 12 13 14 15
854
FTUS44 KBMX 050539
TAFTCL
TAF
KTCL 050539Z 0506/0606 01005KT 3SM -DZ BR OVC004
     FM051600 06003KT 4SM -RA BR OVC006=

USA.gov is the U.S. government's official web portal to all federal, state and local government web resources and services.